Versailles, Missouri
Current Conditions -  °F | °C
As of 1:53 AM on Monday 24 Nov 2014 (Local Time) from KDMO Reporting Station
Overcast Overcast  
Wind Chill: 33°   Ceiling: 3200
Heat Index: 41°   Visibility: 10mi
Dew Point: 36°   Wind: 14mph
Humidity: 82%   Direction: 280°W
Pressure: 29.47"   Gusts: NA
Location:  38.43°N, 92.84°W
Report Text: KDMO 240753Z AUTO 28012KT 10SM SCT026 OVC032 05/02 A2947 RMK AO2 RAE01 SLP980 P0000 T00500022
Loading
Personal Weather Stations






























Interactive Weather Map New forecast layout! Learn more

10-Day Weather Forecast

Advertisements
Track Severe Weather on mobile